Latest Weather Observations for Lihou Reef Lighthouse

IDQ60801

Issued at 9:02 pm EST Sunday 21 December 2014 (issued every 30 minutes, with the page automatically refreshed every 10 minutes)

About weather observations | Map of weather stations | Latest weather observations for QLD | Other Formats
Station Details ID: 200880 Name: LIHOU REEF LIGHTHOUSE Lat: -17.13 Lon: 152.15 Height: 0.0 m
Data from the previous 72 hours. | See also: Recent months for locations in Queensland
Date/Time
EST
Temp
°C
App
Temp
°C
Dew
Point
Rel
Hum
%
Delta-T
°C
Wind Press
QNH
hPa
Press
MSL
hPa
Rain
since 9 am
mm
Dir
 
Spd
km/h
Gust
km/h
Spd
kts
Gust
kts
21/09:00pm 27.6 - - - - ESE 30 37 16 20 1011.4 1011.3 -
21/08:30pm 27.4 - - - - ESE 32 35 17 19 1011.4 1011.3 -
21/08:00pm 26.5 - - - - ESE 28 33 15 18 1011.4 1011.3 -
21/07:30pm 27.7 - - - - SE 28 35 15 19 1011.2 1011.1 -
21/07:00pm 27.3 - - - - ESE 19 20 10 11 1011.0 1010.9 -
21/06:30pm 27.2 - - - - ESE 19 22 10 12 1010.9 1010.8 -
21/06:00pm 26.9 - - - - E 17 20 9 11 1010.8 1010.7 -
21/05:30pm 26.7 - - - - E 19 22 10 12 1010.4 1010.3 -
21/05:00pm 26.1 - - - - ESE 24 28 13 15 1010.2 1010.1 -
21/04:30pm 26.1 - - - - ESE 32 35 17 19 1009.9 1009.8 -
21/04:00pm 26.2 - - - - ESE 26 32 14 17 1009.7 1009.6 -
21/03:30pm 25.7 - - - - SE 35 43 19 23 1009.7 1009.6 -
21/03:00pm 27.6 - - - - ESE 24 28 13 15 1010.0 1009.9 -
21/02:30pm 27.4 - - - - ESE 26 32 14 17 1010.0 1009.9 -
21/02:00pm 27.4 - - - - ESE 28 32 15 17 1010.1 1010.0 -
21/01:30pm 27.4 - - - - ESE 28 32 15 17 1010.3 1010.2 -
21/01:00pm 27.3 - - - - ESE 28 35 15 19 1010.6 1010.5 -
21/12:30pm 26.7 - - - - ESE 28 30 15 16 1011.1 1011.0 -
21/12:00pm 25.2 - - - - SE 37 44 20 24 1011.3 1011.2 -
21/11:47am 26.4 - - - - SE 30 50 16 27 1011.3 1011.2 -
21/11:45am 26.4 - - - - ESE 26 43 14 23 1011.4 1011.3 -
21/11:30am 28.0 - - - - E 19 22 10 12 1011.7 1011.6 -
21/11:00am 28.2 - - - - E 19 24 10 13 1011.8 1011.7 -
21/10:30am 28.2 - - - - E 19 22 10 12 1011.8 1011.7 -
21/10:00am 28.2 - - - - ESE 15 24 8 13 1011.9 1011.8 -
21/09:30am 28.2 - - - - E 2 15 1 8 1012.0 1011.9 -
21/09:00am 28.2 - - - - ESE 17 22 9 12 1012.1 1012.0 -
21/08:30am 28.1 - - - - ESE 20 24 11 13 1012.0 1011.9 -
21/08:00am 27.9 - - - - ESE 22 28 12 15 1011.7 1011.6 -
21/07:30am 27.8 - - - - ESE 22 28 12 15 1011.4 1011.3 -
21/07:00am 27.8 - - - - ESE 22 26 12 14 1011.1 1011.0 -
21/06:30am 27.7 - - - - ESE 24 28 13 15 1010.9 1010.8 -
21/06:00am 27.8 - - - - ESE 24 28 13 15 1010.3 1010.2 -
21/05:30am 27.3 - - - - ESE 26 30 14 16 1010.0 1009.9 -
21/05:00am 27.3 - - - - ESE 24 30 13 16 1009.8 1009.7 -
21/04:30am 27.2 - - - - SE 22 28 12 15 1009.6 1009.5 -
21/04:00am 27.2 - - - - SE 26 30 14 16 1009.4 1009.3 -
21/03:30am 27.3 - - - - ESE 24 28 13 15 1009.4 1009.3 -
21/03:00am 27.2 - - - - ESE 24 28 13 15 1009.2 1009.1 -
21/02:30am 27.2 - - - - ESE 20 26 11 14 1009.5 1009.4 -
21/02:00am 27.3 - - - - ESE 26 30 14 16 1009.7 1009.6 -
21/01:30am 27.3 - - - - ESE 22 26 12 14 1010.1 1010.0 -
21/01:00am 27.4 - - - - ESE 24 30 13 16 1010.3 1010.2 -
21/12:30am 27.4 - - - - ESE 24 28 13 15 1010.7 1010.6 -
21/12:00am 27.4 - - - - ESE 20 24 11 13 1011.1 1011.0 -
 
Date/Time
EST
Temp
°C
App
Temp
°C
Dew
Point
Rel
Hum
%
Delta-T
°C
Wind Press
QNH
hPa
Press
MSL
hPa
Rain
since 9 am
mm
Dir
 
Spd
km/h
Gust
km/h
Spd
kts
Gust
kts
20/11:30pm 27.4 - - - - ESE 20 24 11 13 1011.5 1011.4 -
20/11:00pm 27.4 - - - - ESE 19 20 10 11 1011.9 1011.8 -
20/10:30pm 27.5 - - - - ESE 19 22 10 12 1012.3 1012.2 -
20/10:00pm 27.5 - - - - ESE 17 20 9 11 1012.5 1012.4 -
20/09:30pm 27.5 - - - - ESE 20 24 11 13 1012.3 1012.2 -
20/09:00pm 27.5 - - - - SE 17 20 9 11 1012.0 1011.9 -
20/08:30pm 27.6 - - - - ESE 17 20 9 11 1011.7 1011.6 -
20/08:00pm 27.4 - - - - SE 17 20 9 11 1011.5 1011.4 -
20/07:30pm 27.6 - - - - SE 17 20 9 11 1011.3 1011.2 -
20/07:00pm 27.5 - - - - SE 17 19 9 10 1011.0 1010.9 -
20/06:30pm 27.6 - - - - SE 15 19 8 10 1010.6 1010.5 -
20/06:00pm 27.7 - - - - SE 15 17 8 9 1010.1 1010.0 -
20/05:30pm 27.9 - - - - SE 15 17 8 9 1009.9 1009.8 -
20/05:00pm 28.0 - - - - ESE 15 17 8 9 1009.4 1009.3 -
20/04:30pm 27.8 - - - - SE 17 20 9 11 1009.3 1009.2 -
20/04:00pm 27.8 - - - - SE 17 20 9 11 1009.3 1009.2 -
20/03:30pm 27.9 - - - - SE 19 24 10 13 1009.3 1009.2 -
20/03:00pm 27.8 - - - - SE 19 20 10 11 1009.1 1009.0 -
20/02:30pm 28.0 - - - - ESE 17 20 9 11 1009.3 1009.2 -
20/02:00pm 27.8 - - - - SE 15 20 8 11 1009.7 1009.6 -
20/01:30pm 27.7 - - - - ESE 17 20 9 11 1009.8 1009.7 -
20/01:00pm 27.6 - - - - SE 19 20 10 11 1010.2 1010.1 -
20/12:30pm 27.7 - - - - ESE 15 19 8 10 1010.4 1010.3 -
20/12:00pm 27.6 - - - - ESE 17 20 9 11 1010.7 1010.6 -
20/11:30am 27.7 - - - - ESE 19 20 10 11 1011.1 1011.0 -
20/11:00am 27.8 - - - - ESE 17 20 9 11 1011.4 1011.3 -
20/10:30am 27.9 - - - - ESE 15 19 8 10 1011.7 1011.6 -
20/10:00am 28.0 - - - - ESE 15 19 8 10 1011.8 1011.7 -
20/09:30am 27.8 - - - - ESE 9 17 5 9 1011.8 1011.7 -
20/09:00am 28.3 - - - - E 2 13 1 7 1011.7 1011.6 -
20/08:30am 28.1 - - - - ESE 13 17 7 9 1011.5 1011.4 -
20/08:00am 28.0 - - - - ESE 13 17 7 9 1011.5 1011.4 -
20/07:30am 27.7 - - - - ESE 15 19 8 10 1011.2 1011.1 -
20/07:00am 27.4 - - - - E 19 22 10 12 1010.9 1010.8 -
20/06:30am 27.4 - - - - ESE 17 20 9 11 1011.0 1010.9 -
20/06:00am 27.2 - - - - E 19 20 10 11 1010.7 1010.6 -
20/05:30am 27.1 - - - - E 17 20 9 11 1010.2 1010.1 -
20/05:00am 27.1 - - - - ESE 15 17 8 9 1010.2 1010.1 -
20/04:30am 27.0 - - - - E 15 17 8 9 1010.0 1009.9 -
20/04:00am 27.0 - - - - E 15 20 8 11 1009.7 1009.6 -
20/03:30am 27.1 - - - - E 17 19 9 10 1009.8 1009.7 -
20/03:00am 27.1 - - - - E 17 19 9 10 1009.9 1009.8 -
20/02:30am 27.1 - - - - E 17 20 9 11 1010.0 1009.9 -
20/02:00am 27.1 - - - - E 15 19 8 10 1010.2 1010.1 -
20/01:30am 27.1 - - - - ESE 17 19 9 10 1010.2 1010.1 -
20/01:00am 27.1 - - - - E 17 19 9 10 1010.7 1010.6 -
20/12:30am 27.2 - - - - ESE 17 19 9 10 1011.0 1010.9 -
20/12:00am 27.3 - - - - ESE 17 20 9 11 1011.6 1011.5 -
 
Date/Time
EST
Temp
°C
App
Temp
°C
Dew
Point
Rel
Hum
%
Delta-T
°C
Wind Press
QNH
hPa
Press
MSL
hPa
Rain
since 9 am
mm
Dir
 
Spd
km/h
Gust
km/h
Spd
kts
Gust
kts
19/11:30pm 27.4 - - - - E 15 17 8 9 1012.1 1012.0 -
19/11:00pm 27.4 - - - - ESE 15 19 8 10 1012.4 1012.3 -
19/10:30pm 27.3 - - - - ESE 15 19 8 10 1012.5 1012.4 -
19/10:00pm 27.4 - - - - ESE 15 19 8 10 1012.5 1012.4 -
19/09:30pm 27.4 - - - - ESE 13 17 7 9 1012.3 1012.2 -
19/09:00pm 27.4 - - - - SE 13 17 7 9 1012.0 1011.9 -
19/08:30pm 27.4 - - - - SE 15 19 8 10 1011.8 1011.7 -
19/08:00pm 27.4 - - - - SSE 15 17 8 9 1011.6 1011.5 -
19/07:30pm 27.3 - - - - SSE 13 17 7 9 1011.2 1011.1 -
19/07:00pm 27.3 - - - - SSE 13 17 7 9 1011.1 1011.0 -
19/06:30pm 27.3 - - - - S 9 11 5 6 1010.9 1010.8 -
19/06:00pm 27.6 - - - - SSE 9 11 5 6 1010.8 1010.7 -
19/05:30pm 28.1 - - - - SSE 7 11 4 6 1010.4 1010.3 -
19/05:00pm 28.4 - - - - SSE 4 7 2 4 1010.2 1010.1 -
19/04:30pm 28.6 - - - - S 4 7 2 4 1010.0 1009.9 -
19/04:00pm 28.6 - - - - SSE 4 6 2 3 1009.7 1009.6 -
19/03:30pm 28.2 - - - - ESE 6 7 3 4 1009.8 1009.7 -
19/03:00pm 28.2 - - - - SE 6 7 3 4 1009.9 1009.8 -
19/02:30pm 28.2 - - - - SE 6 9 3 5 1010.0 1009.9 -
19/02:00pm 28.0 - - - - ESE 7 9 4 5 1010.2 1010.1 -
19/01:30pm 28.0 - - - - SE 7 13 4 7 1010.5 1010.4 -
19/01:00pm 27.6 - - - - SE 7 9 4 5 1010.8 1010.7 -
19/12:30pm 27.5 - - - - ESE 9 13 5 7 1010.9 1010.8 -
19/12:00pm 27.2 - - - - ENE 11 15 6 8 1010.9 1010.8 -
19/11:30am 27.1 - - - - E 9 13 5 7 1011.1 1011.0 -
19/11:00am 27.4 - - - - ENE 9 11 5 6 1011.5 1011.4 -
19/10:30am 27.4 - - - - E 7 9 4 5 1011.8 1011.7 -
19/10:00am 27.7 - - - - E 6 7 3 4 1012.2 1012.1 -
19/09:30am 27.6 - - - - ENE 6 7 3 4 1012.2 1012.1 -
19/09:00am 27.6 - - - - ENE 7 9 4 5 1012.2 1012.1 -
19/08:30am 27.3 - - - - ENE 9 11 5 6 1012.0 1011.9 -
19/08:00am 27.1 - - - - ENE 6 11 3 6 1011.9 1011.8 -
19/07:30am 27.1 - - - - ENE 6 9 3 5 1012.0 1011.9 -
19/07:00am 27.1 - - - - E 7 11 4 6 1011.8 1011.7 -
19/06:30am 27.0 - - - - E 6 7 3 4 1011.9 1011.8 -
19/06:00am 26.9 - - - - E 7 11 4 6 1011.7 1011.6 -
19/05:30am 26.8 - - - - ESE 7 9 4 5 1011.5 1011.4 -
19/05:00am 26.7 - - - - ESE 7 11 4 6 1011.2 1011.1 -
19/04:30am 26.7 - - - - E 7 13 4 7 1011.0 1010.9 -
19/04:00am 26.8 - - - - E 9 11 5 6 1010.9 1010.8 -
19/03:30am 26.7 - - - - ENE 7 11 4 6 1010.9 1010.8 -
19/03:00am 26.8 - - - - ENE 9 13 5 7 1011.0 1010.9 -
19/02:30am 26.8 - - - - ESE 9 11 5 6 1011.0 1010.9 -
19/02:00am 26.8 - - - - E 11 13 6 7 1011.1 1011.0 -
19/01:30am 26.8 - - - - ESE 11 13 6 7 1011.3 1011.2 -
19/01:00am 26.8 - - - - ESE 11 19 6 10 1011.4 1011.3 -
19/12:30am 26.9 - - - - E 9 13 5 7 1011.7 1011.6 -
19/12:00am 26.9 - - - - ESE 11 15 6 8 1012.1 1012.0 -
 
Date/Time
EST
Temp
°C
App
Temp
°C
Dew
Point
Rel
Hum
%
Delta-T
°C
Wind Press
QNH
hPa
Press
MSL
hPa
Rain
since 9 am
mm
Dir
 
Spd
km/h
Gust
km/h
Spd
kts
Gust
kts
18/11:30pm 26.9 - - - - ESE 7 11 4 6 1012.3 1012.2 -
18/11:00pm 27.0 - - - - ESE 11 15 6 8 1012.5 1012.4 -
18/10:30pm 27.0 - - - - ESE 13 17 7 9 1012.4 1012.3 -
18/10:00pm 27.0 - - - - E 15 17 8 9 1012.3 1012.2 -
18/09:30pm 27.0 - - - - ESE 17 22 9 12 1012.0 1011.9 -

Other Formats:

Comma delimited format used in spreadsheet applications
http://www.bom.gov.au/fwo/IDQ60801/IDQ60801.94293.axf

JavaScript Object Notation format (JSON) in row-major order
http://www.bom.gov.au/fwo/IDQ60801/IDQ60801.94293.json